PST,Max TemperatureF,Mean TemperatureF,Min TemperatureF,Max Dew PointF,MeanDew PointF,Min DewpointF,Max Humidity, Mean Humidity, Min Humidity, Max Sea Level PressureIn, Mean Sea Level PressureIn, Min Sea Level PressureIn, Max VisibilityMiles, Mean VisibilityMiles, Min VisibilityMiles, Max Wind SpeedMPH, Mean Wind SpeedMPH, Max Gust SpeedMPH,PrecipitationIn, CloudCover, Events, WindDirDegrees
2014-2-1,63,53,42,42,20,6,89,50,11,30.04,29.98,29.93,10,10,10,20,8,34,0.00,0,,25
2014-2-2,63,50,37,42,24,14,44,30,16,30.08,30.01,29.94,10,10,10,17,5,20,0.00,4,Rain,44
2014-2-3,62,53,44,42,40,35,83,61,39,29.97,29.91,29.85,10,10,10,15,3,20,T,2,Rain,276
2014-2-4,61,52,43,43,40,36,89,64,39,30.06,30.01,29.96,10,10,10,9,1,12,0.00,5,,290
2014-2-5,63,54,45,43,41,35,80,58,36,30.11,30.04,29.97,10,10,10,9,2,15,0.00,2,,181
2014-2-6,57,53,48,49,47,42,80,71,61,30.05,30.01,29.97,10,5,2,7,1,10,0.02,7,Rain,31
2014-2-7,62,56,50,51,49,42,96,76,55,30.20,30.11,30.02,10,6,2,15,2,18,0.01,6,Rain,290
2014-2-8,66,57,47,50,47,44,93,71,48,30.27,30.21,30.16,10,8,3,9,2,15,0.00,3,,282
2014-2-9,63,58,52,50,49,46,89,75,60,30.22,30.14,30.08,10,7,4,8,2,11,0.00,6,,25
2014-2-10,69,60,50,52,49,46,89,69,49,30.15,30.06,29.97,10,8,5,16,4,19,0.00,3,,16
2014-2-11,79,63,47,48,43,32,93,56,19,30.08,30.03,29.99,10,10,6,13,3,18,0.00,1,,4
2014-2-12,84,66,48,43,35,21,74,42,10,30.13,30.06,30.00,10,10,10,12,4,16,0.00,0,,49
2014-2-13,86,68,49,44,36,26,66,39,12,30.06,30.00,29.94,10,10,8,12,4,15,0.00,0,,41
2014-2-14,86,67,48,41,37,30,64,39,13,30.03,29.98,29.93,10,9,7,10,4,15,0.00,0,,60
2014-2-15,85,67,48,40,34,24,61,36,11,30.01,29.96,29.92,10,10,9,12,3,16,0.00,1,,59
2014-2-16,80,65,50,48,40,32,63,41,19,30.05,29.99,29.93,10,10,6,9,3,13,0.00,1,,322
2014-2-17,79,64,49,51,44,36,77,51,24,30.06,30.00,29.92,10,9,4,17,5,23,0.00,1,,350
2014-2-18,73,61,49,51,47,42,93,64,35,30.07,29.99,29.91,10,8,3,9,3,14,0.00,4,,199
2014-2-19,70,60,50,50,49,46,93,70,47,30.02,29.95,29.86,9,5,0,10,3,14,0.00,4,Fog,257
2014-2-20,82,65,48,46,30,18,93,51,9,30.01,29.96,29.93,10,9,4,16,7,25,0.00,1,,64
2014-2-21,82,67,51,38,29,21,44,28,11,29.97,29.91,29.83,10,10,10,14,4,19,0.00,0,,352
2014-2-22,76,62,48,39,33,25,56,36,16,29.91,29.88,29.82,10,10,10,10,3,14,0.00,1,,313
2014-2-23,78,62,45,42,36,27,66,41,15,29.97,29.92,29.86,10,10,10,10,4,15,0.00,0,,354
2014-2-24,79,62,44,50,40,33,71,46,21,30.01,29.94,29.87,10,10,7,15,4,22,0.00,0,,294
2014-2-25,76,63,50,50,48,41,89,59,29,30.05,29.99,29.90,10,7,3,16,4,22,0.00,3,,291
2014-2-26,65,58,51,50,48,44,83,68,52,30.07,30.02,29.98,10,9,7,10,3,14,0.00,6,,246
2014-2-27,72,63,54,55,52,41,86,60,34,30.04,29.94,29.82,10,9,4,10,4,13,0.03,5,Rain,334
2014-2-28,64,58,52,58,53,50,100,89,78,29.83,29.72,29.62,10,7,2,32,6,42,0.32,8,Rain-Thunderstorm,301